Time;durP1;ratioP1;P1;durP2;ratioP2;P2;SDS_P1;SDS_P2;PMS_P1;PMS_P2;Temp;Humidity;BMP_temperature;BMP_pressure;BME280_temperature;BME280_humidity;BME280_pressure;Samples;Min_cycle;Max_cycle;Signal;HPM_P1;HPM_P2
2024/02/13 00:01:29;;;;;;;7.57;3.47;;;;;;;6.18;82.75;93748.25;4996044;28;20037;-74
2024/02/13 00:03:56;;;;;;;8.10;3.72;;;;;;;6.25;82.16;93748.56;4996022;28;20419;-74
2024/02/13 00:06:21;;;;;;;7.10;3.78;;;;;;;6.42;81.42;93758.31;4996119;28;20034;-74
2024/02/13 00:08:47;;;;;;;8.30;4.13;;;;;;;5.98;81.48;93697.50;4978303;28;20398;-74
2024/02/13 00:11:13;;;;;;;7.20;3.90;;;;;;;6.30;80.68;93753.38;4995639;28;20042;-74
2024/02/13 00:13:39;;;;;;;9.50;3.80;;;;;;;6.36;80.69;93745.13;4995688;28;20154;-73
2024/02/13 00:16:05;;;;;;;7.63;4.15;;;;;;;6.33;80.71;93746.19;4980282;28;20058;-74
2024/02/13 00:18:33;;;;;;;7.28;4.00;;;;;;;6.45;80.56;93759.81;4998793;28;20037;-74
2024/02/13 00:20:59;;;;;;;10.88;3.97;;;;;;;6.43;80.36;93756.53;5033217;28;20483;-73
2024/02/13 00:23:25;;;;;;;8.65;3.50;;;;;;;6.15;80.84;93714.97;4998825;28;20025;-74
2024/02/13 00:25:51;;;;;;;9.10;4.35;;;;;;;6.35;81.24;93758.94;5031027;28;20533;-74
2024/02/13 00:28:19;;;;;;;6.68;3.70;;;;;;;6.52;80.64;93754.94;5015045;28;20053;-74
2024/02/13 00:30:44;;;;;;;7.93;4.03;;;;;;;6.55;80.34;93755.53;5032894;28;20048;-74
2024/02/13 00:33:10;;;;;;;7.53;3.88;;;;;;;6.41;81.10;93766.19;5032607;28;20025;-74
2024/02/13 00:35:35;;;;;;;8.25;4.00;;;;;;;6.27;81.31;93772.50;5031087;28;20503;-74
2024/02/13 00:38:01;;;;;;;6.15;3.85;;;;;;;6.33;81.91;93742.78;5014920;28;20060;-74
2024/02/13 00:40:26;;;;;;;10.63;4.63;;;;;;;6.40;81.60;93762.78;5032877;28;20391;-74
2024/02/13 00:42:52;;;;;;;7.63;4.40;;;;;;;6.24;81.85;93765.81;5023437;28;20029;-74
2024/02/13 00:45:18;;;;;;;8.95;4.72;;;;;;;6.01;82.75;93765.09;5030426;28;20124;-74
2024/02/13 00:47:43;;;;;;;9.05;4.80;;;;;;;6.33;81.66;93768.59;5014731;28;20033;-73
2024/02/13 00:50:09;;;;;;;9.23;5.30;;;;;;;6.16;81.82;93762.25;5032465;28;20033;-74
2024/02/13 00:52:39;;;;;;;10.43;5.13;;;;;;;6.34;81.81;93762.47;5008199;28;20087;-74
2024/02/13 00:55:07;;;;;;;10.40;4.53;;;;;;;6.20;82.22;93767.00;4995111;28;20122;-74
2024/02/13 00:57:34;;;;;;;9.60;4.65;;;;;;;6.15;82.54;93760.59;4994536;28;20040;-74
2024/02/13 00:59:59;;;;;;;8.65;4.88;;;;;;;6.17;83.04;93769.84;4978848;28;20100;-74
2024/02/13 01:02:26;;;;;;;5.95;4.00;;;;;;;6.18;83.06;93768.06;4993707;28;20488;-73
2024/02/13 01:04:51;;;;;;;8.30;4.68;;;;;;;6.02;83.92;93763.38;4979741;28;20131;-74
2024/02/13 01:07:19;;;;;;;9.05;4.68;;;;;;;6.24;83.53;93770.13;4999656;28;20065;-74
2024/02/13 01:09:45;;;;;;;8.48;4.78;;;;;;;6.33;83.54;93759.09;5032005;28;20044;-74
2024/02/13 01:12:10;;;;;;;8.63;3.92;;;;;;;6.25;83.57;93764.06;4991290;28;20034;-74
2024/02/13 01:14:37;;;;;;;10.70;4.38;;;;;;;6.35;83.81;93751.19;5011000;28;20041;-74
2024/02/13 01:17:04;;;;;;;8.18;4.03;;;;;;;6.54;83.04;93764.19;5012026;28;20030;-75
2024/02/13 01:19:31;;;;;;;6.85;4.45;;;;;;;6.34;83.68;93747.81;4995846;28;22764;-74
2024/02/13 01:21:56;;;;;;;7.53;4.20;;;;;;;6.54;83.43;93771.13;4996862;28;20025;-73
2024/02/13 01:24:24;;;;;;;11.60;5.07;;;;;;;6.51;83.80;93766.22;4997790;28;20044;-74
2024/02/13 01:26:49;;;;;;;11.02;4.50;;;;;;;6.48;83.38;93756.97;5031675;28;20083;-74
2024/02/13 01:29:15;;;;;;;8.23;4.72;;;;;;;6.59;83.35;93764.63;5009515;28;20037;-74
2024/02/13 01:31:40;;;;;;;7.07;4.30;;;;;;;6.50;83.63;93773.16;4994260;28;20100;-74
2024/02/13 01:34:07;;;;;;;7.63;5.05;;;;;;;6.40;84.00;93754.22;5012009;28;20498;-74
2024/02/13 01:36:33;;;;;;;5.85;4.03;;;;;;;6.30;84.55;93774.00;4978314;28;20057;-74
2024/02/13 01:39:02;;;;;;;7.60;4.35;;;;;;;6.32;85.05;93752.28;5006885;28;20063;-74
2024/02/13 01:41:29;;;;;;;6.70;4.50;;;;;;;6.53;85.40;93772.91;5028435;28;20078;-74
2024/02/13 01:43:55;;;;;;;5.72;3.72;;;;;;;6.48;85.42;93768.13;5011563;28;20076;-74
2024/02/13 01:46:20;;;;;;;8.25;5.65;;;;;;;6.45;83.97;93752.06;5014061;28;20411;-74
2024/02/13 01:48:46;;;;;;;8.05;4.60;;;;;;;6.45;83.69;93741.75;4996514;28;20026;-74
2024/02/13 01:51:12;;;;;;;9.00;4.68;;;;;;;6.68;82.84;93770.78;5013827;28;20474;-74
2024/02/13 01:53:37;;;;;;;5.53;3.53;;;;;;;6.62;83.10;93769.53;5013647;28;20025;-74
2024/02/13 01:56:03;;;;;;;4.95;3.63;;;;;;;6.74;83.30;93779.78;4976364;28;20507;-74
2024/02/13 01:58:30;;;;;;;6.28;3.75;;;;;;;6.44;83.60;93787.38;4977712;28;20052;-75
2024/02/13 02:00:59;;;;;;;7.85;4.78;;;;;;;6.54;83.99;93790.00;4994128;28;20453;-74
2024/02/13 02:03:30;;;;;;;10.38;5.65;;;;;;;6.57;83.24;93794.91;4996542;28;20029;-74
2024/02/13 02:05:59;;;;;;;8.23;5.80;;;;;;;6.33;83.83;93794.38;4992481;28;20048;-73
2024/02/13 02:08:25;;;;;;;6.38;3.80;;;;;;;6.46;82.68;93801.00;4978107;28;20036;-73
2024/02/13 02:10:51;;;;;;;5.78;3.55;;;;;;;6.46;82.55;93807.88;4977897;28;20428;-73
2024/02/13 02:13:16;;;;;;;5.65;3.40;;;;;;;6.39;82.49;93810.16;5011335;28;20029;-73
2024/02/13 02:15:42;;;;;;;4.53;3.30;;;;;;;6.36;83.11;93809.59;5027734;28;20064;-74
2024/02/13 02:18:09;;;;;;;4.30;2.85;;;;;;;6.50;82.72;93809.28;5011864;28;20025;-74
2024/02/13 02:20:36;;;;;;;4.18;3.10;;;;;;;6.40;82.67;93805.81;4997239;28;20041;-73
2024/02/13 02:23:02;;;;;;;5.35;3.45;;;;;;;6.42;82.56;93809.91;4995795;28;20499;-74
2024/02/13 02:25:28;;;;;;;6.90;3.30;;;;;;;6.45;82.62;93804.50;5013001;28;20038;-74
2024/02/13 02:27:54;;;;;;;3.75;2.72;;;;;;;6.52;82.86;93815.16;5008838;28;20041;-74
2024/02/13 02:30:19;;;;;;;3.83;2.75;;;;;;;6.45;82.89;93819.16;5011277;28;20547;-73
2024/02/13 02:32:45;;;;;;;3.65;2.78;;;;;;;6.42;82.72;93809.09;4998513;28;20034;-74
2024/02/13 02:35:11;;;;;;;4.15;2.90;;;;;;;6.47;82.49;93800.03;4996755;28;20052;-73
2024/02/13 02:37:39;;;;;;;3.70;2.70;;;;;;;6.49;82.53;93821.38;5013139;28;20025;-74
2024/02/13 02:40:05;;;;;;;4.68;3.22;;;;;;;6.37;82.65;93809.47;5030503;28;20049;-73
2024/02/13 02:42:31;;;;;;;3.83;2.95;;;;;;;6.48;83.14;93824.88;5008972;28;20034;-74
2024/02/13 02:44:57;;;;;;;4.65;3.00;;;;;;;6.64;82.67;93834.75;4993409;28;20109;-74
2024/02/13 02:47:23;;;;;;;3.58;2.72;;;;;;;6.68;82.27;93828.38;4993460;28;20030;-74
2024/02/13 02:49:48;;;;;;;5.95;3.47;;;;;;;6.46;82.74;93824.22;5026380;28;20044;-74
2024/02/13 02:52:13;;;;;;;3.88;3.00;;;;;;;6.61;83.00;93832.44;5008570;28;20120;-74
2024/02/13 02:54:41;;;;;;;4.57;2.63;;;;;;;6.64;82.47;93839.91;4993154;28;20026;-73
2024/02/13 02:57:07;;;;;;;3.10;2.40;;;;;;;6.48;82.76;93834.38;5015432;28;20029;-74
2024/02/13 02:59:32;;;;;;;3.95;2.60;;;;;;;6.53;82.87;93829.66;5011436;28;20034;-73
2024/02/13 03:01:58;;;;;;;4.18;3.17;;;;;;;6.47;82.81;93833.56;5030563;28;20031;-74
2024/02/13 03:04:25;;;;;;;5.80;2.60;;;;;;;6.64;82.63;93833.94;4996322;28;20052;-74
2024/02/13 03:06:51;;;;;;;3.15;2.35;;;;;;;6.23;83.77;93846.69;4993792;28;20161;-73
2024/02/13 03:09:16;;;;;;;3.33;2.10;;;;;;;6.35;83.34;93846.66;5017729;28;20113;-74
2024/02/13 03:11:42;;;;;;;2.75;1.90;;;;;;;6.28;84.26;93840.38;4980275;28;20044;-74
2024/02/13 03:14:09;;;;;;;3.10;2.08;;;;;;;6.57;83.11;93854.25;4972999;28;20034;-74
2024/02/13 03:16:35;;;;;;;3.10;2.10;;;;;;;6.50;83.72;93853.16;5010548;28;20108;-74
2024/02/13 03:19:05;;;;;;;2.80;1.90;;;;;;;6.54;83.42;93859.69;5022944;28;20419;-74
2024/02/13 03:21:31;;;;;;;4.65;2.50;;;;;;;6.43;83.92;93857.16;5030698;28;20028;-74
2024/02/13 03:23:57;;;;;;;3.75;2.55;;;;;;;6.25;83.94;93844.00;5030547;28;20043;-74
2024/02/13 03:26:22;;;;;;;3.22;1.90;;;;;;;6.20;83.62;93852.09;5011838;28;20419;-74
2024/02/13 03:28:47;;;;;;;5.50;2.42;;;;;;;6.31;83.46;93868.50;5008835;28;20034;-73
2024/02/13 03:31:13;;;;;;;3.30;2.05;;;;;;;6.13;83.20;93870.78;5012510;28;20030;-73
2024/02/13 03:33:38;;;;;;;4.03;2.72;;;;;;;6.27;82.18;93870.50;4996652;28;20416;-73
2024/02/13 03:36:04;;;;;;;4.65;2.88;;;;;;;6.29;81.64;93871.19;5013411;28;20054;-74
2024/02/13 03:38:29;;;;;;;2.53;1.73;;;;;;;6.11;81.18;93858.00;5033294;28;20041;-74
2024/02/13 03:40:56;;;;;;;3.25;2.17;;;;;;;6.20;81.51;93866.78;5034069;28;20029;-74
2024/02/13 03:43:21;;;;;;;3.33;2.00;;;;;;;6.39;81.49;93877.22;5015882;28;20041;-73
2024/02/13 03:45:47;;;;;;;3.10;2.15;;;;;;;6.31;81.41;93874.47;5011452;28;20042;-74
2024/02/13 03:48:12;;;;;;;2.90;1.98;;;;;;;6.18;80.34;93863.50;4996212;28;20068;-73
2024/02/13 03:50:38;;;;;;;2.60;1.85;;;;;;;6.36;79.59;93866.34;5013975;28;20085;-73
2024/02/13 03:53:05;;;;;;;2.67;1.77;;;;;;;6.28;79.27;93876.47;4996265;28;20037;-74
2024/02/13 03:55:30;;;;;;;2.63;2.03;;;;;;;6.26;78.89;93887.72;4995230;28;20483;-74
2024/02/13 03:57:57;;;;;;;5.90;3.30;;;;;;;6.20;78.65;93885.63;5015781;28;20041;-74
2024/02/13 04:00:23;;;;;;;5.25;4.25;;;;;;;6.25;77.55;93896.41;5016044;28;20053;-73
2024/02/13 04:02:48;;;;;;;4.80;3.42;;;;;;;6.12;77.80;93888.00;5014022;28;20033;-73
2024/02/13 04:05:14;;;;;;;12.13;8.18;;;;;;;5.92;78.37;93893.91;4998845;28;20040;-73
2024/02/13 04:07:40;;;;;;;3.80;3.10;;;;;;;6.17;78.20;93896.19;5015610;28;20030;-74
2024/02/13 04:10:06;;;;;;;6.18;4.90;;;;;;;6.06;77.92;93885.94;5024293;28;20033;-73
2024/02/13 04:12:31;;;;;;;7.07;5.40;;;;;;;6.13;78.02;93896.56;5014012;28;20029;-74
2024/02/13 04:14:57;;;;;;;4.65;3.30;;;;;;;6.02;77.84;93874.22;5033146;28;20033;-74
2024/02/13 04:17:23;;;;;;;5.38;3.33;;;;;;;5.89;78.05;93870.94;5031554;28;20040;-74
2024/02/13 04:19:48;;;;;;;3.13;2.15;;;;;;;6.08;77.61;93884.06;5002260;28;20435;-74
2024/02/13 04:22:14;;;;;;;3.85;2.83;;;;;;;6.10;77.47;93900.22;4995533;28;20056;-73
2024/02/13 04:24:39;;;;;;;3.55;2.45;;;;;;;6.08;77.21;93889.22;4995489;28;20547;-74
2024/02/13 04:27:05;;;;;;;4.97;3.22;;;;;;;6.00;76.78;93892.38;5020519;28;20037;-73
2024/02/13 04:29:31;;;;;;;6.07;4.53;;;;;;;6.00;76.78;93899.31;5011313;28;20026;-74
2024/02/13 04:31:58;;;;;;;4.78;3.20;;;;;;;5.96;76.89;93883.28;4994118;28;20030;-73
2024/02/13 04:34:23;;;;;;;4.13;2.60;;;;;;;5.91;76.67;93872.47;5011305;28;20060;-74
2024/02/13 04:36:48;;;;;;;2.92;2.00;;;;;;;5.92;76.65;93891.34;5011831;28;20516;-74
2024/02/13 04:39:15;;;;;;;2.63;2.00;;;;;;;5.94;76.93;93881.75;5013723;28;20499;-74
2024/02/13 04:41:42;;;;;;;3.95;2.75;;;;;;;5.96;76.50;93882.44;5006772;28;20043;-74
2024/02/13 04:44:07;;;;;;;3.15;2.42;;;;;;;6.03;77.63;93893.91;5032273;28;20041;-74
2024/02/13 04:46:33;;;;;;;3.53;2.55;;;;;;;6.09;77.10;93898.56;5013127;28;20034;-74
2024/02/13 04:49:00;;;;;;;3.25;2.42;;;;;;;5.83;77.01;93896.28;5014811;28;20116;-74
2024/02/13 04:51:25;;;;;;;3.30;2.35;;;;;;;5.86;76.31;93899.56;5032340;28;20022;-74
2024/02/13 04:53:51;;;;;;;4.45;2.90;;;;;;;5.72;76.61;93893.72;5013827;28;20116;-74
2024/02/13 04:56:17;;;;;;;3.35;2.60;;;;;;;5.77;76.71;93911.41;4994857;28;20084;-74
2024/02/13 04:58:43;;;;;;;3.38;2.40;;;;;;;5.65;75.45;93904.63;4994962;28;20040;-74
2024/02/13 05:01:12;;;;;;;4.22;2.78;;;;;;;5.75;75.33;93921.81;4995212;28;20041;-73
2024/02/13 05:07:19;;;;;;;4.40;2.35;;;;;;;5.74;75.76;93912.47;5010951;28;20428;-73
2024/02/13 05:09:12;;;;;;;3.15;1.83;;;;;;;5.67;74.57;93933.66;5005257;28;20129;-74
2024/02/13 05:11:40;;;;;;;2.90;1.73;;;;;;;5.77;74.46;93932.03;5005217;28;20112;-74
2024/02/13 05:14:06;;;;;;;9.82;5.85;;;;;;;5.79;74.85;93935.28;5022688;28;20038;-74
2024/02/13 05:16:32;;;;;;;3.40;1.80;;;;;;;5.69;74.72;93942.91;4988068;28;20041;-74
2024/02/13 05:18:57;;;;;;;3.97;2.28;;;;;;;5.77;74.85;93943.16;4994583;28;20036;-74
2024/02/13 05:21:24;;;;;;;10.95;6.28;;;;;;;5.79;75.44;93946.44;5010553;28;20037;-74
2024/02/13 05:23:49;;;;;;;5.05;2.92;;;;;;;5.82;74.47;93948.78;5012996;28;20017;-74
2024/02/13 05:26:15;;;;;;;6.90;3.20;;;;;;;5.88;74.95;93952.63;4995302;28;20025;-74
2024/02/13 05:28:41;;;;;;;3.85;2.40;;;;;;;5.77;74.11;93935.41;4984049;28;20104;-75
2024/02/13 05:31:07;;;;;;;7.95;6.20;;;;;;;5.95;74.57;93953.81;5008895;28;20041;-74
2024/02/13 05:33:32;;;;;;;2.60;1.60;;;;;;;5.66;74.39;93940.59;5010086;28;20018;-74
2024/02/13 05:35:58;;;;;;;3.83;2.45;;;;;;;5.96;73.74;93958.03;4989572;28;20091;-74
2024/02/13 05:38:23;;;;;;;5.05;3.40;;;;;;;5.86;74.71;93944.19;5020808;28;20060;-74
2024/02/13 05:40:49;;;;;;;5.20;3.60;;;;;;;6.00;74.48;93961.19;5011709;28;20036;-74
2024/02/13 05:43:14;;;;;;;2.25;1.60;;;;;;;6.03;73.75;93969.50;4997090;28;20022;-74
2024/02/13 05:45:40;;;;;;;4.32;2.30;;;;;;;6.02;74.18;93977.38;5028661;28;20499;-74
2024/02/13 05:48:07;;;;;;;2.25;1.45;;;;;;;6.11;73.53;93971.47;4995228;28;20026;-74
2024/02/13 05:50:32;;;;;;;2.97;1.80;;;;;;;6.12;74.41;93992.91;4992067;28;20511;-74
2024/02/13 05:52:58;;;;;;;2.97;1.65;;;;;;;6.03;74.06;93974.66;5013129;28;20111;-74
2024/02/13 05:55:23;;;;;;;4.05;3.40;;;;;;;6.12;73.80;93980.84;5025628;28;20044;-74
2024/02/13 05:57:49;;;;;;;3.50;1.88;;;;;;;6.18;73.36;93969.22;5030670;28;20041;-74
2024/02/13 06:00:14;;;;;;;3.00;2.40;;;;;;;6.28;72.75;93983.03;5009822;28;20033;-74
2024/02/13 06:02:43;;;;;;;3.05;2.30;;;;;;;6.21;73.30;93990.47;5012396;28;20125;-74
2024/02/13 06:05:10;;;;;;;12.05;9.32;;;;;;;6.22;73.54;93981.75;5010359;28;20033;-74
2024/02/13 06:07:36;;;;;;;4.47;3.30;;;;;;;6.32;73.14;93978.44;5011953;28;20033;-74
2024/02/13 06:10:02;;;;;;;2.65;2.25;;;;;;;6.32;73.05;93989.59;5028227;28;20030;-74
2024/02/13 06:12:29;;;;;;;2.30;1.70;;;;;;;6.29;73.28;94000.16;4976966;28;20030;-74
2024/02/13 06:14:54;;;;;;;3.92;1.90;;;;;;;6.37;72.03;93995.19;5012008;28;20041;-74
2024/02/13 06:17:20;;;;;;;2.40;1.88;;;;;;;6.34;72.59;93995.44;5011918;28;20029;-74
2024/02/13 06:19:45;;;;;;;3.83;2.35;;;;;;;6.37;72.54;93999.56;5027522;28;20025;-74
2024/02/13 06:22:11;;;;;;;5.18;3.67;;;;;;;6.38;72.72;93996.88;5026862;28;20040;-74
2024/02/13 06:24:36;;;;;;;3.35;2.30;;;;;;;6.38;72.57;94003.75;5011505;28;20030;-74
2024/02/13 06:27:02;;;;;;;3.65;2.22;;;;;;;6.24;72.11;93981.63;5007011;28;20026;-74
2024/02/13 06:29:27;;;;;;;3.53;2.50;;;;;;;6.46;71.45;93998.81;5003558;28;20121;-74
2024/02/13 06:31:54;;;;;;;3.58;2.55;;;;;;;6.45;71.25;94012.66;5030559;28;20033;-74
2024/02/13 06:34:21;;;;;;;4.38;3.50;;;;;;;6.48;71.70;94013.22;4994659;28;20029;-73
2024/02/13 06:36:47;;;;;;;4.55;3.20;;;;;;;6.52;71.59;94013.84;4998515;28;20508;-73
2024/02/13 06:39:12;;;;;;;14.50;6.90;;;;;;;6.45;72.22;93994.59;5000905;28;20030;-74
2024/02/13 06:41:40;;;;;;;7.40;5.13;;;;;;;6.52;72.73;94008.66;4996826;28;20025;-74
2024/02/13 06:44:05;;;;;;;3.53;2.70;;;;;;;6.66;71.79;94018.72;4990982;28;20036;-79
2024/02/13 06:46:31;;;;;;;3.03;2.15;;;;;;;6.42;71.57;94005.16;5022669;28;20034;-77
2024/02/13 06:48:57;;;;;;;2.85;2.08;;;;;;;6.77;71.36;94029.91;5026912;28;20018;-76
2024/02/13 06:51:26;;;;;;;3.58;2.38;;;;;;;6.83;71.88;94029.44;5010877;28;20054;-75
2024/02/13 06:53:51;;;;;;;6.00;3.78;;;;;;;6.69;72.77;94038.28;5010640;28;20044;-77
2024/02/13 06:56:18;;;;;;;2.72;2.00;;;;;;;6.54;71.82;94032.56;5012161;28;20415;-74
2024/02/13 06:58:43;;;;;;;3.10;2.05;;;;;;;6.74;73.05;94041.31;5028952;28;20419;-73
2024/02/13 07:01:09;;;;;;;5.28;3.33;;;;;;;6.65;72.28;94029.13;4997410;28;20034;-74
2024/02/13 07:03:35;;;;;;;7.97;4.82;;;;;;;6.63;72.54;94024.13;4994796;28;20041;-75
2024/02/13 07:06:00;;;;;;;3.85;2.60;;;;;;;6.59;72.60;94037.38;5005441;28;20034;-75
2024/02/13 07:08:26;;;;;;;3.35;2.60;;;;;;;6.59;73.21;94035.59;4995234;28;20021;-75
2024/02/13 07:10:52;;;;;;;4.32;2.88;;;;;;;6.60;72.98;94032.09;5013580;28;20100;-76
2024/02/13 07:13:17;;;;;;;9.07;6.07;;;;;;;6.49;73.39;94024.38;4980792;28;20443;-76
2024/02/13 07:15:43;;;;;;;10.05;6.85;;;;;;;6.43;73.57;94035.19;4998747;28;20037;-76
2024/02/13 07:18:08;;;;;;;7.57;4.90;;;;;;;6.50;73.62;94041.50;5030601;28;20049;-76
2024/02/13 07:20:34;;;;;;;6.60;4.22;;;;;;;6.48;73.86;94020.16;5012421;28;20458;-77
2024/02/13 07:23:01;;;;;;;8.90;6.10;;;;;;;6.59;73.92;94034.78;5028928;28;20143;-76
2024/02/13 07:25:27;;;;;;;6.85;4.93;;;;;;;6.65;73.57;94032.53;5021204;28;20037;-77
2024/02/13 07:27:52;;;;;;;4.75;3.67;;;;;;;6.64;73.69;94010.25;5014041;28;20036;-76
2024/02/13 07:30:18;;;;;;;4.90;3.50;;;;;;;6.57;73.46;94029.75;5013204;28;20339;-77
2024/02/13 07:32:45;;;;;;;6.75;3.67;;;;;;;6.81;74.30;94021.00;5013273;28;20025;-78
2024/02/13 07:35:11;;;;;;;5.05;3.58;;;;;;;6.71;73.45;94010.56;5013219;28;20057;-77
2024/02/13 07:37:36;;;;;;;4.13;2.75;;;;;;;6.78;72.41;94026.41;5032948;28;20079;-76
2024/02/13 07:40:02;;;;;;;5.13;3.28;;;;;;;6.89;74.68;94013.44;4998391;28;20415;-76
2024/02/13 07:42:29;;;;;;;3.53;2.60;;;;;;;6.90;73.24;94025.41;5006178;28;20086;-75
2024/02/13 07:44:55;;;;;;;7.20;4.60;;;;;;;6.99;73.39;94019.50;5012495;28;20037;-76
2024/02/13 07:47:21;;;;;;;7.60;5.45;;;;;;;7.28;73.85;94029.22;4996516;28;20061;-75
2024/02/13 07:49:48;;;;;;;5.90;4.45;;;;;;;7.46;74.40;94026.88;5013961;28;20546;-75
2024/02/13 07:52:14;;;;;;;7.18;3.97;;;;;;;7.37;74.75;94031.03;5030865;28;20514;-75
2024/02/13 07:54:39;;;;;;;5.07;4.10;;;;;;;7.52;73.28;94032.38;5016114;28;20088;-75
2024/02/13 07:57:05;;;;;;;11.10;5.40;;;;;;;7.45;74.84;94031.22;5015533;28;20029;-77
2024/02/13 07:59:30;;;;;;;4.88;2.50;;;;;;;7.58;74.06;94046.56;5033529;28;20102;-77
2024/02/13 08:01:57;;;;;;;5.80;2.85;;;;;;;7.22;72.04;94033.13;5033267;28;20546;-77
2024/02/13 08:04:22;;;;;;;6.53;3.63;;;;;;;7.12;72.70;94051.13;5015424;28;20079;-77
2024/02/13 08:06:48;;;;;;;43.03;16.67;;;;;;;6.94;73.26;94042.31;5015327;28;20480;-76
2024/02/13 08:09:14;;;;;;;8.93;4.20;;;;;;;7.00;73.47;94052.13;5015518;28;20431;-75
2024/02/13 08:11:41;;;;;;;16.98;7.60;;;;;;;7.18;74.69;94038.66;5032894;28;20029;-74
2024/02/13 08:14:09;;;;;;;11.25;4.90;;;;;;;7.19;74.09;94054.06;5015603;28;20048;-74
2024/02/13 08:16:35;;;;;;;5.80;3.22;;;;;;;7.23;75.81;94033.94;5015155;28;20112;-75
2024/02/13 08:19:00;;;;;;;8.35;4.40;;;;;;;7.24;75.54;94048.50;5015536;28;20025;-74
2024/02/13 08:21:26;;;;;;;3.78;2.83;;;;;;;7.26;74.80;94052.59;5015199;28;20030;-74
2024/02/13 08:23:51;;;;;;;33.80;19.00;;;;;;;7.12;73.92;94043.38;5032821;28;20124;-74
2024/02/13 08:26:17;;;;;;;12.05;8.68;;;;;;;7.15;74.14;94056.03;5032594;28;20037;-76
2024/02/13 08:28:44;;;;;;;3.72;3.13;;;;;;;7.22;73.99;94053.78;5030552;28;20051;-76
2024/02/13 08:31:09;;;;;;;3.90;2.60;;;;;;;7.29;74.30;94046.34;5010670;28;20560;-75
2024/02/13 08:33:35;;;;;;;3.20;2.50;;;;;;;7.37;73.95;94060.28;5014295;28;20033;-74
2024/02/13 08:36:01;;;;;;;4.40;3.08;;;;;;;7.56;73.43;94048.44;5010040;28;20041;-75
2024/02/13 08:38:27;;;;;;;3.47;2.85;;;;;;;7.55;74.56;94052.78;5009242;28;20049;-75
2024/02/13 08:40:52;;;;;;;4.90;3.50;;;;;;;7.69;73.75;94053.38;4991417;28;20018;-73
2024/02/13 08:43:19;;;;;;;3.97;2.90;;;;;;;7.53;73.56;94044.34;5024065;28;20037;-74
2024/02/13 08:45:44;;;;;;;10.13;5.65;;;;;;;7.59;72.58;94056.75;5014178;28;20040;-73
2024/02/13 08:48:09;;;;;;;6.40;4.30;;;;;;;7.37;73.81;94068.03;4997910;28;20037;-74
2024/02/13 08:50:35;;;;;;;9.32;5.28;;;;;;;7.70;73.87;94065.38;4998217;28;20468;-75
2024/02/13 08:53:01;;;;;;;8.50;5.68;;;;;;;7.74;74.13;94064.16;4997226;28;20036;-74
2024/02/13 08:55:26;;;;;;;9.95;6.53;;;;;;;7.94;72.46;94067.66;4998215;28;20021;-74
2024/02/13 08:57:52;;;;;;;6.50;4.63;;;;;;;7.90;72.70;94066.31;4994434;28;20084;-74
2024/02/13 09:00:18;;;;;;;7.47;4.18;;;;;;;7.83;72.23;94064.22;4994505;28;20034;-74
2024/02/13 09:02:47;;;;;;;8.55;4.20;;;;;;;7.82;71.11;94070.34;5013965;28;20076;-74
2024/02/13 09:05:12;;;;;;;5.07;2.72;;;;;;;7.98;70.78;94069.88;5014281;28;20061;-74
2024/02/13 09:07:38;;;;;;;9.15;4.80;;;;;;;7.84;71.07;94062.47;5014146;28;20033;-74
2024/02/13 09:10:05;;;;;;;6.05;3.38;;;;;;;7.91;69.94;94073.94;4994326;28;20030;-75
2024/02/13 09:12:32;;;;;;;8.30;5.07;;;;;;;7.84;69.56;94076.19;4994478;28;20512;-74
2024/02/13 09:14:58;;;;;;;15.00;6.90;;;;;;;7.82;70.30;94074.69;4994107;28;20040;-74
2024/02/13 09:17:24;;;;;;;16.20;9.40;;;;;;;7.85;69.39;94071.84;4994428;28;20038;-75
2024/02/13 09:19:49;;;;;;;21.48;11.85;;;;;;;7.78;68.71;94068.97;5019890;28;20029;-75
2024/02/13 09:22:15;;;;;;;15.55;9.40;;;;;;;7.78;70.01;94050.88;4978349;28;20555;-74
2024/02/13 09:24:49;;;;;;;8.40;5.65;;;;;;;8.00;68.59;94067.97;5006311;28;20040;-74
2024/02/13 09:27:15;;;;;;;14.63;9.70;;;;;;;8.06;67.87;94075.22;4980428;28;20030;-74
2024/02/13 09:29:40;;;;;;;4.72;3.47;;;;;;;7.98;67.30;94069.06;5024890;28;20521;-74
2024/02/13 09:32:06;;;;;;;10.30;6.38;;;;;;;8.17;67.58;94076.09;5013413;28;20037;-75
2024/02/13 09:34:31;;;;;;;11.35;7.97;;;;;;;8.16;68.52;94090.81;5008716;28;20035;-75
2024/02/13 09:36:57;;;;;;;24.05;13.88;;;;;;;8.31;66.46;94082.69;5028239;28;20029;-74
2024/02/13 09:39:23;;;;;;;3.17;2.25;;;;;;;7.91;66.97;94073.94;5028690;28;20029;-74
2024/02/13 09:41:50;;;;;;;2.95;2.00;;;;;;;7.79;67.17;94085.28;4997130;28;20061;-74
2024/02/13 09:44:16;;;;;;;6.88;4.97;;;;;;;7.70;67.60;94060.22;5012904;28;20021;-74
2024/02/13 09:46:42;;;;;;;6.55;5.00;;;;;;;7.77;68.23;94063.91;4968897;28;20068;-75
2024/02/13 09:49:09;;;;;;;4.40;3.35;;;;;;;7.49;67.86;94037.78;4996497;28;20471;-75
2024/02/13 09:51:36;;;;;;;7.28;4.82;;;;;;;7.78;68.40;94052.63;4997494;28;20030;-74
2024/02/13 09:54:05;;;;;;;3.55;2.50;;;;;;;7.31;67.93;94062.56;4993992;28;20053;-76
2024/02/13 09:56:31;;;;;;;21.02;11.20;;;;;;;7.60;68.98;94055.81;4977041;28;20038;-74
2024/02/13 09:58:57;;;;;;;11.25;5.15;;;;;;;7.70;67.26;94057.63;5024338;28;20021;-74
2024/02/13 10:01:23;;;;;;;11.02;6.93;;;;;;;7.91;68.56;94061.00;5031044;28;20030;-74
2024/02/13 10:03:49;;;;;;;10.65;6.13;;;;;;;8.00;67.92;94057.63;4980978;28;20499;-74
2024/02/13 10:06:14;;;;;;;4.93;3.70;;;;;;;8.12;66.93;94045.44;5013028;28;20048;-74
2024/02/13 10:08:40;;;;;;;17.00;7.57;;;;;;;8.18;67.31;94044.91;5011337;28;20034;-74
2024/02/13 10:11:08;;;;;;;10.15;5.82;;;;;;;8.03;66.13;94049.63;4995163;28;20033;-73
2024/02/13 10:13:39;;;;;;;8.93;6.32;;;;;;;8.27;67.35;94044.13;5013932;28;20061;-74
2024/02/13 10:16:06;;;;;;;4.32;3.15;;;;;;;8.41;66.79;94052.47;4999356;28;20566;-74
2024/02/13 10:18:33;;;;;;;3.22;2.42;;;;;;;8.37;65.55;94051.09;5014933;28;20107;-75
2024/02/13 10:21:00;;;;;;;4.13;1.90;;;;;;;8.27;65.18;94035.53;4990754;28;20037;-75
2024/02/13 10:23:29;;;;;;;4.53;3.65;;;;;;;8.30;64.87;94053.38;4994325;28;20037;-76
2024/02/13 10:25:54;;;;;;;3.28;2.88;;;;;;;8.22;66.10;94063.59;5013075;28;20480;-76
2024/02/13 10:28:22;;;;;;;3.28;2.67;;;;;;;8.18;65.94;94041.50;5030535;28;20088;-76
2024/02/13 10:30:52;;;;;;;4.45;3.35;;;;;;;8.20;65.88;94042.19;4978540;28;20092;-74
2024/02/13 10:33:19;;;;;;;2.97;2.55;;;;;;;8.16;65.03;94041.66;5009098;28;20034;-73
2024/02/13 10:35:52;;;;;;;2.83;2.05;;;;;;;8.12;65.34;94034.25;4994090;28;20060;-75
2024/02/13 10:38:23;;;;;;;3.97;2.95;;;;;;;8.13;65.74;94030.72;5009264;28;20029;-74
2024/02/13 10:40:51;;;;;;;3.97;3.07;;;;;;;8.13;65.61;94008.25;4991850;28;20113;-74
2024/02/13 10:43:16;;;;;;;6.22;4.15;;;;;;;8.27;65.24;94030.34;4982154;28;20041;-75
2024/02/13 10:45:41;;;;;;;4.07;2.92;;;;;;;8.22;65.14;94020.41;4996684;28;20506;-74
2024/02/13 10:48:15;;;;;;;4.50;2.45;;;;;;;8.20;65.67;94037.81;4984869;28;20038;-74
2024/02/13 10:50:40;;;;;;;5.25;3.83;;;;;;;8.14;65.67;94032.38;4998481;28;20026;-75
2024/02/13 10:53:06;;;;;;;3.65;2.53;;;;;;;7.92;64.58;94008.31;4994312;28;20416;-75
2024/02/13 10:55:33;;;;;;;3.05;2.10;;;;;;;8.13;65.82;94028.13;5013133;28;20040;-73
2024/02/13 10:57:59;;;;;;;3.13;1.90;;;;;;;8.04;65.54;94035.72;5011979;28;20046;-74
2024/02/13 11:00:24;;;;;;;2.75;2.17;;;;;;;7.95;66.82;94013.25;5000505;28;20132;-74
2024/02/13 11:02:55;;;;;;;3.00;2.00;;;;;;;7.84;65.78;94011.56;5000171;28;20087;-74
2024/02/13 11:05:25;;;;;;;3.00;2.47;;;;;;;7.95;68.13;94021.00;5016690;28;20511;-75
2024/02/13 11:07:50;;;;;;;2.78;2.15;;;;;;;7.89;66.51;94018.94;5001282;28;20052;-73
2024/02/13 11:10:16;;;;;;;12.10;7.28;;;;;;;7.96;67.50;94020.03;4998947;28;20492;-74
2024/02/13 11:12:44;;;;;;;9.18;5.50;;;;;;;8.15;67.88;94021.06;5016421;28;20037;-74
2024/02/13 11:15:15;;;;;;;8.50;6.95;;;;;;;8.12;67.65;94023.91;5000986;28;20088;-74
2024/02/13 11:17:47;;;;;;;4.70;2.92;;;;;;;8.27;66.84;94026.00;4996806;28;20033;-74
2024/02/13 11:20:14;;;;;;;8.27;6.47;;;;;;;8.08;67.50;94033.72;4980768;28;20042;-74
2024/02/13 11:22:44;;;;;;;6.32;4.80;;;;;;;8.01;66.98;94017.88;5001743;28;20053;-74
2024/02/13 11:25:11;;;;;;;4.33;2.80;;;;;;;8.05;67.14;94021.84;5034174;28;20479;-73
2024/02/13 11:27:36;;;;;;;2.78;2.00;;;;;;;8.15;66.51;94026.25;4999908;28;20486;-74
2024/02/13 11:30:06;;;;;;;4.28;3.10;;;;;;;8.23;66.95;94029.81;5033965;28;20395;-74
2024/02/13 11:32:36;;;;;;;3.25;2.50;;;;;;;8.35;67.08;94016.75;5000639;28;20163;-74
2024/02/13 11:35:07;;;;;;;3.58;2.85;;;;;;;8.37;66.76;94017.44;5016227;28;20053;-74
2024/02/13 11:37:34;;;;;;;4.67;3.40;;;;;;;8.38;66.62;94025.06;5001166;28;20033;-74
2024/02/13 11:40:04;;;;;;;3.45;2.47;;;;;;;8.22;66.52;94025.59;4999679;28;20424;-74